• Join FlightAware (Why Join?)
  • Login
  • US Flag 
08:24AM EDT


 

Airport Tracker/Info


-or-


 

Live Flight TrackerFlight Track Log ✈ EGF2787 ✈ 17-Apr-2013 ✈ KLRD - KDFW

Flight Track Log - Related Links

Times and Time Zones

All times are in EDT time to prevent confusion due to time zone crossing. See the EGF2787 flight status page for this flight to view local times or setup timezone preferences in your user account.

Time Position Orientation Groundspeed Altitude Reporting Facility
EDT Latitude Longitude Course Direction KTS MPH feet Rate Location/Type
03:54PM 27.7127 -99.3687 24° Northeast  Level FlightAware Approximate
03:55PM 27.8018 -99.3264 18° North  Level FlightAware Approximate
03:56PM 27.8936 -99.2920 18° North  Level FlightAware Approximate
03:57PM 27.9806 -99.2450 28° Northeast  Level FlightAware Approximate
03:58PM 28.0684 -99.1992 22° Northeast  Level FlightAware Approximate
03:59PM 28.1578 -99.1575 22° Northeast  Level FlightAware Approximate
04:00PM 28.2473 -99.1158 22° Northeast  Level FlightAware Approximate
04:01PM 28.3368 -99.0742 22° Northeast  Level FlightAware Approximate
04:02PM 28.4266 -99.0334 22° Northeast  Level FlightAware Approximate
04:03PM 28.5152 -98.9899 30° Northeast  Level FlightAware Approximate
04:04PM 28.6028 -98.9441 21° North  Level FlightAware Approximate
04:05PM 28.6931 -98.9049 21° North  Level FlightAware Approximate
04:06PM 28.7832 -98.8649 21° North  Level FlightAware Approximate
04:07PM 28.8724 -98.8222 24° Northeast  Level FlightAware Approximate
04:08PM 28.9610 -98.7779 24° Northeast  Level FlightAware Approximate
04:09PM 29.0506 -98.7365 19° North  Level FlightAware Approximate
04:10PM 29.1393 -98.6931 28° Northeast  Level FlightAware Approximate
04:11PM 29.2271 -98.6472 21° North  Level FlightAware Approximate
04:12PM 29.3173 -98.6071 21° North  Level FlightAware Approximate
04:13PM 29.4062 -98.5636 24° Northeast  Level FlightAware Approximate
04:14PM 29.4948 -98.5192 24° Northeast  Level FlightAware Approximate
04:15PM 29.5835 -98.4749 23° Northeast  Level FlightAware Approximate
04:16PM 29.6755 -98.4453 North  Level FlightAware Approximate
04:17PM 29.7718 -98.4346 North  Level FlightAware Approximate
04:18PM 29.8680 -98.4239 North  Level FlightAware Approximate
04:19PM 29.9640 -98.4106 10° North  Level FlightAware Approximate
04:20PM 30.0592 -98.3915 10° North  Level FlightAware Approximate
04:21PM 30.1548 -98.3742 North  Level FlightAware Approximate
04:22PM 30.2505 -98.3583 North  Level FlightAware Approximate
04:23PM 30.3462 -98.3423 North  Level FlightAware Approximate
04:24PM 30.4421 -98.3275 North  Level FlightAware Approximate
04:25PM 30.5381 -98.3142 North  Level FlightAware Approximate
04:26PM 30.6341 -98.3009 North  Level FlightAware Approximate
04:27PM 30.7301 -98.2876 North  Level FlightAware Approximate
04:28PM 30.8261 -98.2743 North  Level FlightAware Approximate
04:29PM 30.9222 -98.2609 North  Level FlightAware Approximate
04:30PM 31.0182 -98.2476 North  Level FlightAware Approximate
04:31PM 31.1143 -98.2348 North  Level FlightAware Approximate
04:32PM 31.2103 -98.2220 North  Level FlightAware Approximate
04:33PM 31.3055 -98.2028 12° North  Level FlightAware Approximate
04:34PM 31.4016 -98.1959 11° North  Level FlightAware Approximate
04:35PM 31.4967 -98.1748 11° North  Level FlightAware Approximate
04:36PM 31.5879 -98.1394 23° Northeast  Level FlightAware Approximate
04:37PM 31.6789 -98.1015 16° North  Level FlightAware Approximate
04:38PM 31.7796 -98.0519 23° Northeast  Level FlightAware Approximate
04:39PM 31.8802 -98.0016 23° Northeast  Level FlightAware Approximate
04:40PM 31.9809 -97.9561 26° Northeast  Level FlightAware Approximate
04:41PM 32.0799 -97.9017 23° Northeast  Level FlightAware Approximate
04:42PM 32.1736 -97.8392 45° Northeast  Level FlightAware Approximate
04:43PM 32.2512 -97.7484 48° Northeast  Level FlightAware Approximate
04:44PM 32.3329 -97.6669 23° Northeast  Level FlightAware Approximate
04:45PM 32.3979 -97.5688 40° Northeast  Level FlightAware Approximate
04:46PM 32.4791 -97.4826 50° Northeast  Level FlightAware Approximate
04:47PM 32.5497 -97.3837 50° Northeast  Level FlightAware Approximate
04:48PM 32.6313 -97.2976 44° Northeast  Level FlightAware Approximate
04:49PM 32.7010 -97.2180 44° Northeast  Level FlightAware Approximate
04:50PM 32.7657 -97.1343 40° Northeast  Level FlightAware Approximate
04:51PM 32.8450 -97.0589 29° Northeast  Level FlightAware Approximate
04:52PM 32.8833 -97.0333 29° Northeast  Level FlightAware Approximate
04:52PM 32.9667 -97.0500 29° Northeast 124 143 1,500  Level Dallas / Fort Worth TRACON
04:52PM 32.9333 -97.0500 180° South 126 145 900 -720 Descending Dallas / Fort Worth TRACON
04:53PM 32.8968 -97.0380 29° Northeast  Level Estimated
04:54PM 32.8968 -97.0380 29° Northeast  Level Estimated
04:54PM 32.8968 -97.0380 29° Northeast  Level Estimated
04:55PM 32.8968 -97.0380 29° Northeast  Level Estimated
04:56PM 32.8968 -97.0380 29° Northeast  Level Estimated
04:57PM 32.8968 -97.0380 29° Northeast  Level Estimated
05:01PM 32.8968 -97.0380 29° Northeast  Level Estimated
05:02PM 32.8968 -97.0380 29° Northeast  Level Estimated
05:03PM 32.8968 -97.0380 29° Northeast  Level Estimated
05:04PM 32.8968 -97.0380 29° Northeast  Level Estimated
05:05PM 32.8968 -97.0380 29° Northeast  Level Estimated
05:06PM 32.8968 -97.0380 29° Northeast  Level Estimated
05:07PM 32.8968 -97.0380 29° Northeast  Level Estimated
05:08PM 32.8968 -97.0380 29° Northeast  Level Estimated
05:09PM 32.8968 -97.0380 29° Northeast  Level Estimated